Time;durP1;ratioP1;P1;durP2;ratioP2;P2;SDS_P1;SDS_P2;PMS_P1;PMS_P2;Temp;Humidity;BMP_temperature;BMP_pressure;BME280_temperature;BME280_humidity;BME280_pressure;Samples;Min_cycle;Max_cycle;Signal;HPM_P1;HPM_P2
2023/05/23 00:02:16;;;;;;;29.80;22.53;;;;;;;13.70;100.00;101700.81;5242691;28;20033;-66
2023/05/23 00:04:48;;;;;;;27.37;22.30;;;;;;;13.73;100.00;101701.66;5242613;28;20057;-66
2023/05/23 00:07:19;;;;;;;27.27;22.73;;;;;;;13.82;100.00;101712.03;5242809;28;20120;-66
2023/05/23 00:09:50;;;;;;;29.73;22.37;;;;;;;13.88;100.00;101704.97;5242296;28;20056;-67
2023/05/23 00:12:22;;;;;;;27.37;21.73;;;;;;;13.84;100.00;101707.63;5241933;28;20484;-66
2023/05/23 00:14:53;;;;;;;25.67;22.97;;;;;;;13.85;100.00;101704.13;5242740;28;20171;-66
2023/05/23 00:17:25;;;;;;;23.77;21.07;;;;;;;13.79;100.00;101709.44;5242288;28;20029;-67
2023/05/23 00:19:56;;;;;;;24.90;22.20;;;;;;;13.78;100.00;101705.09;5242171;28;20036;-68
2023/05/23 00:22:27;;;;;;;27.07;21.57;;;;;;;13.81;100.00;101704.19;5242165;28;20072;-66
2023/05/23 00:25:02;;;;;;;23.33;20.93;;;;;;;13.80;100.00;101708.56;5242003;28;20021;-68
2023/05/23 00:27:33;;;;;;;23.13;19.65;;;;;;;13.80;100.00;101708.56;5242069;28;20112;-67
2023/05/23 00:30:05;;;;;;;23.93;18.67;;;;;;;13.81;100.00;101709.44;5240822;28;20125;-67
2023/05/23 00:32:36;;;;;;;22.67;18.58;;;;;;;13.79;100.00;101719.94;5242802;28;20108;-67
2023/05/23 00:35:08;;;;;;;20.40;17.30;;;;;;;13.80;100.00;101716.44;5242072;28;20108;-67
2023/05/23 00:37:39;;;;;;;23.07;16.80;;;;;;;13.85;100.00;101713.75;5224174;28;20055;-66
2023/05/23 00:40:11;;;;;;;19.63;16.17;;;;;;;13.82;100.00;101719.03;5242227;28;20406;-66
2023/05/23 00:42:42;;;;;;;20.97;16.93;;;;;;;13.80;100.00;101718.19;5242011;28;20033;-67
2023/05/23 00:45:14;;;;;;;18.20;16.20;;;;;;;13.81;100.00;101715.56;5242574;28;20053;-67
2023/05/23 00:47:47;;;;;;;20.25;15.40;;;;;;;13.80;100.00;101724.28;5242319;28;20547;-67
2023/05/23 00:50:19;;;;;;;19.55;14.85;;;;;;;13.91;100.00;101721.56;5241553;28;20030;-67
2023/05/23 00:52:51;;;;;;;17.50;14.40;;;;;;;13.84;100.00;101720.72;5241490;28;20037;-67
2023/05/23 00:55:23;;;;;;;18.50;13.67;;;;;;;13.86;100.00;101720.72;5242182;28;20432;-67
2023/05/23 00:57:56;;;;;;;18.42;14.27;;;;;;;13.92;100.00;101725.03;5241428;28;20152;-67
2023/05/23 01:00:27;;;;;;;17.67;15.05;;;;;;;13.88;100.00;101720.69;5241501;28;20401;-66
2023/05/23 01:03:00;;;;;;;16.77;13.57;;;;;;;13.89;100.00;101727.69;5241628;28;20030;-67
2023/05/23 01:05:31;;;;;;;18.83;14.07;;;;;;;13.83;100.00;101734.75;5241539;28;20021;-67
2023/05/23 01:08:02;;;;;;;15.77;14.00;;;;;;;13.85;100.00;101732.09;5241674;28;20054;-67
2023/05/23 01:10:34;;;;;;;15.87;13.60;;;;;;;13.88;100.00;101736.44;5241663;28;20088;-67
2023/05/23 01:13:33;;;;;;;17.07;13.97;;;;;;;13.83;100.00;101734.75;5241388;28;20025;-67
2023/05/23 01:16:17;;;;;;;19.85;13.77;;;;;;;13.73;100.00;101730.47;5241432;28;20469;-67
2023/05/23 01:18:57;;;;;;;19.08;13.38;;;;;;;13.75;100.00;101741.81;5273617;28;20044;-66
2023/05/23 01:21:30;;;;;;;19.15;13.57;;;;;;;13.69;99.99;101741.88;5241270;28;20040;-67
2023/05/23 01:24:10;;;;;;;20.45;14.88;;;;;;;13.71;99.76;101739.25;5240881;28;20116;-67
2023/05/23 01:26:53;;;;;;;19.25;14.63;;;;;;;13.66;99.89;101744.53;5244452;28;20061;-67
2023/05/23 01:29:28;;;;;;;20.05;14.85;;;;;;;13.56;99.96;101741.16;5245234;28;20037;-67
2023/05/23 01:32:01;;;;;;;23.95;14.30;;;;;;;13.60;100.00;101747.22;5244993;28;20029;-66
2023/05/23 01:34:33;;;;;;;;;;;;;;;13.66;99.43;101748.00;5245238;28;20021;-66
2023/05/23 01:37:13;;;;;;;18.30;13.75;;;;;;;13.54;99.69;101755.13;5244957;28;19920;-66
2023/05/23 01:39:45;;;;;;;23.65;14.13;;;;;;;13.55;99.79;101762.09;5245478;28;20029;-67
2023/05/23 01:42:17;;;;;;;22.88;14.98;;;;;;;13.53;99.88;101756.88;5243770;28;20025;-66
2023/05/23 01:44:48;;;;;;;28.13;15.02;;;;;;;13.57;99.10;101762.97;5245898;28;20129;-67
2023/05/23 01:47:21;;;;;;;23.47;15.17;;;;;;;13.52;99.64;101757.75;5244890;28;20033;-67
2023/05/23 01:49:54;;;;;;;21.02;13.52;;;;;;;13.50;99.59;101755.16;5244893;28;20033;-67
2023/05/23 01:52:25;;;;;;;18.75;13.48;;;;;;;13.47;100.00;101762.19;5245002;28;20055;-67
2023/05/23 01:54:58;;;;;;;19.80;13.60;;;;;;;13.49;100.00;101758.69;5244928;28;20033;-67
2023/05/23 01:57:32;;;;;;;23.77;15.35;;;;;;;13.54;100.00;101762.97;5276926;28;20470;-66
2023/05/23 02:00:05;;;;;;;25.63;16.52;;;;;;;13.43;100.00;101769.19;5244349;28;20033;-66
2023/05/23 02:02:37;;;;;;;21.67;15.63;;;;;;;13.40;100.00;101766.59;5244598;28;20056;-67
2023/05/23 02:05:09;;;;;;;21.00;15.47;;;;;;;13.39;100.00;101772.72;5244867;28;20115;-66
2023/05/23 02:07:40;;;;;;;26.42;17.35;;;;;;;13.40;100.00;101771.84;5245031;28;20133;-66
2023/05/23 02:10:12;;;;;;;25.27;16.47;;;;;;;13.39;100.00;101780.56;5244104;28;20116;-67
2023/05/23 02:12:43;;;;;;;25.63;16.33;;;;;;;13.41;100.00;101777.94;5244404;28;20077;-66
2023/05/23 02:15:16;;;;;;;25.37;18.77;;;;;;;13.43;100.00;101778.81;5244443;28;20092;-66
2023/05/23 02:17:47;;;;;;;26.40;16.17;;;;;;;13.43;100.00;101781.44;5242929;28;20057;-66
2023/05/23 02:20:19;;;;;;;32.40;17.57;;;;;;;13.39;100.00;101780.56;5243887;28;20118;-66
2023/05/23 02:22:50;;;;;;;24.80;15.87;;;;;;;13.40;100.00;101784.94;5276040;28;20029;-66
2023/05/23 02:25:21;;;;;;;28.57;17.63;;;;;;;13.38;100.00;101793.69;5244107;28;20030;-67
2023/05/23 02:27:53;;;;;;;25.20;17.40;;;;;;;13.32;100.00;101795.47;5244291;28;20037;-67
2023/05/23 02:30:24;;;;;;;26.03;19.13;;;;;;;13.31;100.00;101788.47;5244071;28;20037;-67
2023/05/23 02:32:57;;;;;;;27.57;17.97;;;;;;;13.27;100.00;101805.09;5243947;28;20477;-66
2023/05/23 02:35:28;;;;;;;;;;;;;;;13.36;100.00;101800.69;5244231;28;20038;-66
2023/05/23 02:37:59;;;;;;;23.53;16.73;;;;;;;13.28;100.00;101805.94;5243211;28;19992;-66
2023/05/23 02:40:31;;;;;;;24.87;17.13;;;;;;;13.18;100.00;101792.06;5244274;28;20417;-66
2023/05/23 02:43:02;;;;;;;26.90;16.50;;;;;;;13.24;100.00;101799.88;5243394;28;20065;-66
2023/05/23 02:45:33;;;;;;;25.97;17.03;;;;;;;13.20;100.00;101795.56;5244510;28;20130;-66
2023/05/23 02:48:05;;;;;;;27.87;17.67;;;;;;;13.22;100.00;101798.16;5243515;28;20380;-66
2023/05/23 02:50:36;;;;;;;25.77;15.37;;;;;;;13.28;100.00;101793.75;5243532;28;20030;-66
2023/05/23 02:53:08;;;;;;;22.67;16.27;;;;;;;13.25;100.00;101796.38;5243134;28;20025;-66
2023/05/23 02:55:39;;;;;;;22.07;14.97;;;;;;;13.28;100.00;101792.84;5243008;28;20147;-66
2023/05/23 02:58:10;;;;;;;19.63;14.00;;;;;;;13.24;100.00;101793.78;5243189;28;20022;-68
2023/05/23 03:00:42;;;;;;;20.37;12.70;;;;;;;13.16;100.00;101795.59;5243150;28;20124;-68
2023/05/23 03:03:15;;;;;;;18.00;11.35;;;;;;;13.11;100.00;101796.47;5242655;28;20033;-67
2023/05/23 03:05:47;;;;;;;20.98;12.23;;;;;;;13.03;100.00;101792.19;5243670;28;20030;-67
2023/05/23 03:08:19;;;;;;;19.17;10.88;;;;;;;13.05;100.00;101790.41;5243201;28;20029;-66
2023/05/23 03:10:51;;;;;;;19.43;11.10;;;;;;;13.03;100.00;101797.41;5243137;28;20079;-66
2023/05/23 03:13:22;;;;;;;14.70;9.88;;;;;;;13.06;100.00;101800.03;5242737;28;20025;-66
2023/05/23 03:15:53;;;;;;;15.33;9.67;;;;;;;13.06;100.00;101795.66;5243012;28;20044;-67
2023/05/23 03:18:25;;;;;;;11.30;7.77;;;;;;;13.04;100.00;101801.75;5242807;28;20155;-66
2023/05/23 03:20:56;;;;;;;11.80;8.00;;;;;;;13.04;100.00;101799.13;5243279;28;20372;-66
2023/05/23 03:23:27;;;;;;;11.17;7.43;;;;;;;13.02;100.00;101799.16;5243215;28;20037;-67
2023/05/23 03:25:59;;;;;;;10.77;7.20;;;;;;;13.02;100.00;101798.28;5242962;28;20081;-66
2023/05/23 03:28:30;;;;;;;9.43;7.37;;;;;;;12.98;100.00;101793.97;5241798;28;20032;-67
2023/05/23 03:31:02;;;;;;;10.87;7.50;;;;;;;13.02;100.00;101795.66;5242868;28;20056;-66
2023/05/23 03:33:33;;;;;;;8.53;6.47;;;;;;;13.02;100.00;101804.38;5242795;28;20488;-66
2023/05/23 03:36:05;;;;;;;10.07;7.47;;;;;;;13.02;100.00;101799.16;5242931;28;20041;-67
2023/05/23 03:38:36;;;;;;;11.00;9.50;;;;;;;13.07;100.00;101809.59;5242789;28;20115;-66
2023/05/23 03:41:08;;;;;;;12.17;7.17;;;;;;;13.08;100.00;101814.81;5242747;28;20275;-67
2023/05/23 03:43:39;;;;;;;10.37;7.87;;;;;;;13.03;100.00;101811.38;5242326;28;20132;-65
2023/05/23 03:46:10;;;;;;;8.60;6.77;;;;;;;13.06;100.00;101808.72;5258166;28;20036;-67
2023/05/23 03:48:42;;;;;;;9.87;7.30;;;;;;;13.01;100.00;101807.00;5242110;28;20178;-66
2023/05/23 03:51:13;;;;;;;10.40;7.30;;;;;;;13.04;100.00;101807.88;5242719;28;20025;-67
2023/05/23 03:53:44;;;;;;;11.70;7.47;;;;;;;13.05;100.00;101813.97;5242322;28;20052;-67
2023/05/23 03:56:16;;;;;;;9.63;7.23;;;;;;;13.03;100.00;101820.97;5242169;28;20036;-67
2023/05/23 03:58:47;;;;;;;9.50;8.13;;;;;;;13.02;100.00;101811.38;5242268;28;20037;-67
2023/05/23 04:01:19;;;;;;;10.63;6.90;;;;;;;13.06;100.00;101810.50;5242864;28;20044;-67
2023/05/23 04:03:51;;;;;;;14.20;8.10;;;;;;;13.06;100.00;101811.34;5241205;28;20127;-67
2023/05/23 04:06:23;;;;;;;10.45;7.90;;;;;;;13.07;100.00;101818.34;5240779;28;20032;-66
2023/05/23 04:08:54;;;;;;;9.52;7.22;;;;;;;13.10;100.00;101825.28;5242182;28;20485;-67
2023/05/23 04:11:26;;;;;;;16.07;8.20;;;;;;;13.13;100.00;101825.25;5242023;28;20472;-66
2023/05/23 04:13:57;;;;;;;12.67;8.03;;;;;;;13.11;100.00;101821.78;5242074;28;20406;-66
2023/05/23 04:16:31;;;;;;;11.50;7.47;;;;;;;13.20;100.00;101823.47;5242296;28;20079;-66
2023/05/23 04:19:03;;;;;;;12.20;8.35;;;;;;;13.19;100.00;101830.47;5242014;28;20033;-67
2023/05/23 04:21:34;;;;;;;12.10;7.17;;;;;;;13.19;100.00;101837.47;5241986;28;20045;-67
2023/05/23 04:24:07;;;;;;;13.23;7.90;;;;;;;13.21;100.00;101836.53;5241007;28;20029;-66
2023/05/23 04:26:38;;;;;;;15.27;8.35;;;;;;;13.14;100.00;101834.88;5241809;28;20032;-66
2023/05/23 04:29:11;;;;;;;14.97;8.77;;;;;;;13.16;100.00;101840.09;5240703;28;20037;-65
2023/05/23 04:31:44;;;;;;;15.93;8.80;;;;;;;13.17;100.00;101836.56;5240630;28;20358;-66
2023/05/23 04:34:16;;;;;;;17.23;9.52;;;;;;;13.22;100.00;101835.69;5242298;28;20048;-66
2023/05/23 04:36:48;;;;;;;17.20;10.23;;;;;;;13.24;100.00;101840.91;5241493;28;20041;-67
2023/05/23 04:39:19;;;;;;;17.75;9.98;;;;;;;13.23;100.00;101849.63;5241975;28;20025;-66
2023/05/23 04:41:51;;;;;;;14.20;10.33;;;;;;;13.14;100.00;101850.56;5241344;28;20033;-66
2023/05/23 04:44:22;;;;;;;19.87;11.67;;;;;;;13.20;100.00;101852.25;5242026;28;20045;-67
2023/05/23 04:46:57;;;;;;;17.70;10.90;;;;;;;13.16;100.00;101853.19;5242396;28;20030;-66
2023/05/23 04:49:28;;;;;;;22.63;11.75;;;;;;;13.17;100.00;101858.41;5240535;28;20477;-66
2023/05/23 04:52:00;;;;;;;15.67;11.73;;;;;;;13.22;100.00;101859.25;5241900;28;20075;-66
2023/05/23 04:54:31;;;;;;;23.50;11.80;;;;;;;13.12;100.00;101861.06;5241161;28;20026;-66
2023/05/23 04:57:03;;;;;;;26.23;11.67;;;;;;;13.17;100.00;101865.38;5241765;28;20037;-66
2023/05/23 04:59:34;;;;;;;22.50;13.33;;;;;;;13.12;100.00;101870.63;5241114;28;20268;-66
2023/05/23 05:02:06;;;;;;;26.30;14.37;;;;;;;13.03;100.00;101871.56;5245190;28;20033;-66
2023/05/23 05:04:37;;;;;;;26.83;14.15;;;;;;;13.02;100.00;101866.34;5245645;28;20037;-66
2023/05/23 05:07:09;;;;;;;27.63;13.70;;;;;;;13.02;100.00;101872.44;5245883;28;20482;-66
2023/05/23 05:09:40;;;;;;;32.33;14.23;;;;;;;12.98;100.00;101870.72;5245779;28;20037;-67
2023/05/23 05:12:12;;;;;;;29.27;15.60;;;;;;;13.02;100.00;101874.19;5261121;28;20040;-65
2023/05/23 05:14:43;;;;;;;33.90;15.00;;;;;;;12.97;100.00;101875.97;5246108;28;20037;-66
2023/05/23 05:17:15;;;;;;;20.80;12.73;;;;;;;13.03;100.00;101875.94;5245304;28;20045;-66
2023/05/23 05:19:47;;;;;;;27.08;14.73;;;;;;;13.00;100.00;101881.19;5246351;28;20026;-67
2023/05/23 05:22:18;;;;;;;23.63;14.50;;;;;;;13.03;100.00;101882.03;5245475;28;20088;-65
2023/05/23 05:24:49;;;;;;;32.50;13.60;;;;;;;13.06;100.00;101882.03;5245061;28;20079;-66
2023/05/23 05:27:21;;;;;;;29.10;13.23;;;;;;;12.99;100.00;101890.78;5245560;28;20040;-67
2023/05/23 05:29:52;;;;;;;27.27;14.87;;;;;;;12.99;100.00;101892.53;5245526;28;20560;-66
2023/05/23 05:32:24;;;;;;;25.03;13.30;;;;;;;12.98;100.00;101893.44;5244850;28;20111;-66
2023/05/23 05:34:55;;;;;;;29.53;14.23;;;;;;;13.06;100.00;101895.13;5245192;28;20030;-66
2023/05/23 05:37:26;;;;;;;30.83;14.33;;;;;;;12.88;100.00;101903.94;5245061;28;20044;-67
2023/05/23 05:40:02;;;;;;;28.60;13.40;;;;;;;12.76;100.00;101899.59;5245122;28;20100;-67
2023/05/23 05:42:33;;;;;;;32.67;14.05;;;;;;;12.71;100.00;101903.97;5245014;28;20053;-67
2023/05/23 05:45:05;;;;;;;31.13;12.87;;;;;;;12.66;100.00;101902.28;5245011;28;20069;-66
2023/05/23 05:47:37;;;;;;;23.02;12.13;;;;;;;12.75;100.00;101903.13;5245042;28;20038;-66
2023/05/23 05:50:09;;;;;;;27.67;12.00;;;;;;;12.72;99.90;101915.34;5244044;28;20370;-66
2023/05/23 05:52:41;;;;;;;20.63;12.02;;;;;;;12.73;100.00;101912.69;5245580;28;20038;-66
2023/05/23 05:55:12;;;;;;;28.77;10.77;;;;;;;12.74;100.00;101913.59;5245359;28;20065;-66
2023/05/23 05:57:44;;;;;;;28.37;12.70;;;;;;;12.74;99.81;101919.66;5244923;28;20029;-67
2023/05/23 06:00:17;;;;;;;29.53;11.17;;;;;;;12.70;99.74;101914.44;5244680;28;20037;-66
2023/05/23 06:02:50;;;;;;;31.48;11.65;;;;;;;12.57;99.92;101913.63;5245214;28;20041;-66
2023/05/23 06:05:21;;;;;;;;;;;;;;;12.69;99.61;101923.19;5245431;28;20495;-66
2023/05/23 06:07:53;;;;;;;29.52;12.85;;;;;;;12.70;99.94;101928.44;5244503;28;19921;-66
2023/05/23 06:10:25;;;;;;;26.00;12.10;;;;;;;12.73;99.82;101932.75;5244487;28;20041;-66
2023/05/23 06:12:57;;;;;;;27.92;11.98;;;;;;;12.63;98.94;101939.75;5244672;28;20056;-66
2023/05/23 06:15:28;;;;;;;21.35;10.15;;;;;;;12.54;98.49;101937.16;5244198;28;20044;-66
2023/05/23 06:18:00;;;;;;;22.03;9.17;;;;;;;12.49;98.71;101942.41;5242954;28;20033;-66
2023/05/23 06:20:31;;;;;;;21.37;9.37;;;;;;;12.43;98.31;101947.69;5242625;28;20034;-66
2023/05/23 06:23:04;;;;;;;16.53;8.50;;;;;;;12.38;98.41;101954.63;5244190;28;20036;-66
2023/05/23 06:25:35;;;;;;;19.70;7.93;;;;;;;12.35;97.91;101949.44;5243760;28;20366;-66
2023/05/23 06:28:07;;;;;;;14.97;8.40;;;;;;;12.40;98.04;101945.91;5244079;28;20076;-67
2023/05/23 06:30:38;;;;;;;17.07;6.97;;;;;;;12.39;97.84;101959.00;5244631;28;20116;-66
2023/05/23 06:33:11;;;;;;;16.20;7.53;;;;;;;12.45;97.84;101959.00;5244262;28;20025;-66
2023/05/23 06:35:42;;;;;;;12.93;6.78;;;;;;;12.60;97.97;101955.47;5244462;28;20049;-67
2023/05/23 06:38:13;;;;;;;13.37;7.17;;;;;;;12.50;95.95;101956.38;5243653;28;20033;-67
2023/05/23 06:40:45;;;;;;;18.37;6.93;;;;;;;12.54;96.06;101963.31;5244210;28;20060;-65
2023/05/23 06:43:16;;;;;;;9.77;6.03;;;;;;;12.54;95.50;101965.94;5244359;28;20056;-65
2023/05/23 06:45:47;;;;;;;12.97;6.80;;;;;;;12.55;95.56;101978.16;5244111;28;20049;-66
2023/05/23 06:48:19;;;;;;;14.23;7.30;;;;;;;12.44;95.27;101975.53;5242660;28;20033;-66
2023/05/23 06:50:50;;;;;;;16.20;7.83;;;;;;;12.44;95.06;101979.91;5244045;28;20427;-66
2023/05/23 06:53:21;;;;;;;16.03;8.00;;;;;;;12.43;95.16;101986.00;5244222;28;20421;-66
2023/05/23 06:55:53;;;;;;;14.53;7.03;;;;;;;12.34;95.38;101990.38;5242330;28;20079;-66
2023/05/23 06:58:25;;;;;;;15.10;6.87;;;;;;;12.35;96.23;101989.53;5243610;28;20029;-67
2023/05/23 07:00:57;;;;;;;18.40;7.82;;;;;;;12.30;95.87;102008.69;5243621;28;20040;-67
2023/05/23 07:03:28;;;;;;;15.57;6.67;;;;;;;12.33;94.88;102008.69;5243665;28;20029;-66
2023/05/23 07:05:59;;;;;;;16.47;6.63;;;;;;;12.44;94.52;102006.94;5258748;28;20059;-67
2023/05/23 07:08:31;;;;;;;15.10;7.27;;;;;;;12.50;94.38;102004.31;5243369;28;20067;-65
2023/05/23 07:11:02;;;;;;;17.67;7.00;;;;;;;12.63;93.25;102007.78;5242984;28;20133;-65
2023/05/23 07:13:34;;;;;;;13.67;6.73;;;;;;;12.64;92.46;102016.50;5243278;28;20033;-65
2023/05/23 07:16:05;;;;;;;15.13;6.30;;;;;;;12.66;89.92;102017.38;5243176;28;20103;-66
2023/05/23 07:18:37;;;;;;;17.97;6.17;;;;;;;12.75;89.00;102018.22;5243161;28;20112;-66
2023/05/23 07:21:08;;;;;;;13.63;5.53;;;;;;;12.98;86.80;102014.69;5243075;28;20121;-66
2023/05/23 07:23:39;;;;;;;13.63;5.70;;;;;;;13.10;84.00;102019.84;5242267;28;20026;-67
2023/05/23 07:26:11;;;;;;;14.07;5.77;;;;;;;13.14;82.46;102020.75;5242571;28;20033;-66
2023/05/23 07:28:42;;;;;;;16.97;6.40;;;;;;;13.13;81.09;102029.47;5242754;28;20061;-66
2023/05/23 07:31:14;;;;;;;12.97;6.30;;;;;;;13.30;79.85;102021.56;5242551;28;20116;-66
2023/05/23 07:33:45;;;;;;;18.70;6.00;;;;;;;13.52;79.10;102024.09;5243265;28;20038;-66
2023/05/23 07:36:16;;;;;;;14.93;5.80;;;;;;;13.50;76.77;102027.56;5242538;28;20048;-66
2023/05/23 07:38:48;;;;;;;14.53;6.23;;;;;;;13.66;76.27;102032.75;5242602;28;20029;-67
2023/05/23 07:41:19;;;;;;;18.33;6.83;;;;;;;13.88;75.70;102030.88;5242149;28;20469;-66
2023/05/23 07:43:50;;;;;;;12.47;6.67;;;;;;;14.07;75.01;102036.88;5241639;28;20052;-66
2023/05/23 07:46:22;;;;;;;14.13;6.17;;;;;;;14.10;72.62;102039.44;5242901;28;20030;-66
2023/05/23 07:48:54;;;;;;;13.40;5.47;;;;;;;14.45;71.91;102035.66;5242914;28;20548;-66
2023/05/23 07:51:25;;;;;;;13.00;5.73;;;;;;;14.37;70.31;102038.34;5242284;28;20045;-66
2023/05/23 07:53:57;;;;;;;15.60;6.20;;;;;;;14.31;70.12;102046.28;5242280;28;20033;-67
2023/05/23 07:56:28;;;;;;;16.77;7.20;;;;;;;13.95;71.25;102048.28;5242148;28;20034;-66
2023/05/23 07:59:00;;;;;;;12.23;6.50;;;;;;;13.77;73.37;102045.78;5240911;28;20045;-66
2023/05/23 08:01:31;;;;;;;17.33;6.87;;;;;;;13.55;73.88;102059.00;5242136;28;20037;-66
2023/05/23 08:04:03;;;;;;;16.63;6.23;;;;;;;13.58;74.29;102053.75;5240577;28;20083;-66
2023/05/23 08:06:34;;;;;;;12.27;6.23;;;;;;;13.58;74.45;102055.50;5242512;28;20040;-67
2023/05/23 08:09:05;;;;;;;10.37;5.00;;;;;;;13.57;73.50;102057.25;5242148;28;20033;-66
2023/05/23 08:11:37;;;;;;;16.87;7.57;;;;;;;13.48;73.74;102058.16;5256906;28;20469;-66
2023/05/23 08:14:08;;;;;;;48.83;19.70;;;;;;;13.50;74.89;102066.88;5241961;28;20035;-67
2023/05/23 08:16:40;;;;;;;12.03;6.40;;;;;;;13.82;74.81;102072.84;5240067;28;20069;-66
2023/05/23 08:19:11;;;;;;;11.70;5.80;;;;;;;14.00;73.23;102064.00;5241756;28;20079;-66
2023/05/23 08:21:42;;;;;;;14.57;6.90;;;;;;;14.47;71.88;102067.13;5241519;28;20026;-67
2023/05/23 08:24:14;;;;;;;12.17;6.23;;;;;;;14.41;71.83;102068.06;5241458;28;20034;-66
2023/05/23 08:26:45;;;;;;;13.17;6.30;;;;;;;14.66;71.41;102070.50;5242095;28;20365;-65
2023/05/23 08:29:17;;;;;;;10.50;6.67;;;;;;;14.65;69.83;102071.38;5241902;28;20095;-66
2023/05/23 08:31:48;;;;;;;19.20;6.77;;;;;;;14.51;70.23;102069.72;5241697;28;20492;-67
2023/05/23 08:34:20;;;;;;;14.03;6.57;;;;;;;13.98;72.05;102065.75;5256475;28;20044;-66
2023/05/23 08:36:51;;;;;;;13.00;5.90;;;;;;;14.04;73.12;102063.09;5240987;28;20535;-66
2023/05/23 08:39:22;;;;;;;14.53;6.43;;;;;;;14.02;72.20;102070.97;5241862;28;20117;-65
2023/05/23 08:41:54;;;;;;;11.27;6.17;;;;;;;14.11;73.41;102071.78;5241718;28;20117;-66
2023/05/23 08:44:25;;;;;;;11.27;6.30;;;;;;;14.12;73.75;102071.78;5241622;28;20081;-66
2023/05/23 08:47:04;;;;;;;11.60;5.77;;;;;;;14.12;73.62;102077.03;5241722;28;20034;-66
2023/05/23 08:49:37;;;;;;;13.80;6.30;;;;;;;14.08;73.97;102069.19;5241444;28;20060;-66
2023/05/23 08:52:12;;;;;;;13.00;6.05;;;;;;;14.16;73.38;102081.34;5240215;28;20030;-66
2023/05/23 08:54:43;;;;;;;9.52;4.63;;;;;;;14.17;73.27;102079.63;5240836;28;20037;-67
2023/05/23 08:57:15;;;;;;;10.57;5.27;;;;;;;14.52;74.32;102083.69;5241401;28;20038;-66
2023/05/23 08:59:48;;;;;;;12.85;5.10;;;;;;;14.34;72.68;102085.59;5241367;28;20033;-66
2023/05/23 09:02:21;;;;;;;10.95;5.38;;;;;;;14.67;72.92;102083.63;5239971;28;20038;-66
2023/05/23 09:04:52;;;;;;;11.70;5.55;;;;;;;15.06;72.30;102085.88;5241108;28;20057;-66
2023/05/23 09:07:24;;;;;;;12.37;4.93;;;;;;;15.14;71.18;102091.91;5241237;28;20464;-66
2023/05/23 09:09:55;;;;;;;11.37;4.87;;;;;;;15.39;70.97;102099.50;5241309;28;20033;-66
2023/05/23 09:12:28;;;;;;;11.47;4.30;;;;;;;15.50;70.88;102087.09;5241836;28;20034;-67
2023/05/23 09:14:59;;;;;;;12.77;4.88;;;;;;;15.83;67.70;102093.69;5241246;28;20025;-67
2023/05/23 09:17:35;;;;;;;10.37;4.60;;;;;;;15.38;69.60;102101.25;5241377;28;20485;-66
2023/05/23 09:20:14;;;;;;;14.75;5.00;;;;;;;15.22;71.55;102092.69;5241490;28;20368;-66
2023/05/23 09:22:47;;;;;;;9.20;4.38;;;;;;;14.75;71.11;102112.44;5241737;28;20051;-66
2023/05/23 09:25:18;;;;;;;9.95;4.35;;;;;;;14.17;72.95;102103.22;5241108;28;20030;-66
2023/05/23 09:27:53;;;;;;;14.50;5.00;;;;;;;14.27;72.86;102104.88;5241373;28;20088;-67
2023/05/23 09:30:24;;;;;;;15.10;4.65;;;;;;;14.38;71.15;102099.56;5241803;28;20064;-66
2023/05/23 09:32:57;;;;;;;14.87;4.17;;;;;;;14.69;70.45;102109.84;5241068;28;20061;-66
2023/05/23 09:35:29;;;;;;;17.50;5.13;;;;;;;15.12;68.16;102114.69;5239826;28;20079;-66
2023/05/23 09:38:00;;;;;;;14.50;4.20;;;;;;;15.22;66.29;102116.31;5239748;28;20033;-66
2023/05/23 09:40:32;;;;;;;15.87;4.40;;;;;;;14.93;65.27;102120.13;5241498;28;20029;-66
2023/05/23 09:43:06;;;;;;;11.53;4.57;;;;;;;14.47;66.59;102120.47;5240957;28;20034;-66
2023/05/23 09:45:37;;;;;;;14.10;5.18;;;;;;;14.49;66.73;102118.72;5239301;28;20053;-67
2023/05/23 09:48:12;;;;;;;10.70;4.20;;;;;;;14.72;66.85;102115.06;5244046;28;20033;-66
2023/05/23 09:50:45;;;;;;;13.05;4.57;;;;;;;15.20;65.97;102115.47;5245088;28;20037;-66
2023/05/23 09:53:20;;;;;;;13.90;4.55;;;;;;;15.52;63.96;102116.88;5244705;28;20457;-66
2023/05/23 09:55:54;;;;;;;14.07;4.90;;;;;;;15.45;62.15;102115.19;5244522;28;20128;-66
2023/05/23 09:58:27;;;;;;;16.73;4.45;;;;;;;15.95;60.49;102108.44;5244529;28;20033;-65
2023/05/23 10:01:02;;;;;;;18.48;4.50;;;;;;;16.19;58.80;102109.84;5243224;28;20338;-66
2023/05/23 10:03:40;;;;;;;15.32;3.83;;;;;;;15.91;58.68;102116.41;5244506;28;20428;-65
2023/05/23 10:06:52;;;;;;;16.65;4.28;;;;;;;15.93;60.19;102119.88;5244225;28;20029;-66
2023/05/23 10:09:25;;;;;;;17.52;4.82;;;;;;;16.10;58.12;102114.38;5244669;28;20082;-66
2023/05/23 10:12:06;;;;;;;17.73;3.80;;;;;;;16.84;56.87;102110.53;5244287;28;20076;-68
2023/05/23 10:14:42;;;;;;;12.20;4.60;;;;;;;17.57;52.47;102113.56;5243838;28;20040;-66
2023/05/23 10:17:32;;;;;;;13.63;4.38;;;;;;;19.09;48.50;102117.03;5244352;28;20030;-67
2023/05/23 10:20:09;;;;;;;13.38;3.67;;;;;;;19.53;45.54;102106.13;5244839;28;20361;-66
2023/05/23 10:22:42;;;;;;;14.90;3.97;;;;;;;19.92;45.88;102105.84;5244271;28;20473;-65
2023/05/23 10:25:14;;;;;;;;;;;;;;;20.76;45.15;102101.38;5244951;28;20033;-66
2023/05/23 10:27:48;;;;;;;13.03;3.70;;;;;;;19.17;43.36;102105.38;5243815;28;19967;-66
2023/05/23 10:30:20;;;;;;;15.38;4.32;;;;;;;18.15;46.58;102103.53;5244126;28;20334;-64
2023/05/23 10:32:56;;;;;;;12.63;4.05;;;;;;;18.00;50.07;102115.31;5243786;28;20037;-66
2023/05/23 10:35:44;;;;;;;14.80;4.75;;;;;;;19.29;46.84;102105.91;5244104;28;20128;-66
2023/05/23 10:38:42;;;;;;;8.68;3.40;;;;;;;19.93;44.87;102098.75;5244235;28;20088;-66
2023/05/23 10:41:21;;;;;;;8.55;3.70;;;;;;;18.97;44.83;102112.06;5244231;28;20033;-66
2023/05/23 10:44:01;;;;;;;13.13;4.10;;;;;;;19.06;45.35;102116.22;5243883;28;20454;-67
2023/05/23 10:46:57;;;;;;;11.20;4.13;;;;;;;19.35;43.58;102106.63;5243298;28;20048;-67
2023/05/23 10:49:40;;;;;;;13.55;4.78;;;;;;;18.98;46.17;102108.50;5243584;28;20038;-66
2023/05/23 10:52:14;;;;;;;11.77;5.20;;;;;;;20.16;43.21;102098.91;5243489;28;20022;-66
2023/05/23 10:54:49;;;;;;;14.25;4.55;;;;;;;19.46;42.22;102099.25;5243351;28;20029;-66
2023/05/23 10:57:25;;;;;;;13.23;4.47;;;;;;;18.19;44.67;102102.56;5243466;28;20068;-66
2023/05/23 10:59:57;;;;;;;13.40;4.32;;;;;;;18.20;44.99;102109.56;5243533;28;20040;-65
2023/05/23 11:02:29;;;;;;;12.73;4.05;;;;;;;19.27;42.34;102104.19;5243796;28;20037;-65
2023/05/23 11:05:21;;;;;;;12.87;4.30;;;;;;;20.15;40.54;102104.25;5243017;28;20029;-66
2023/05/23 11:08:09;;;;;;;18.38;5.68;;;;;;;19.81;40.83;102092.94;5243315;28;20767;-66
2023/05/23 11:11:02;;;;;;;15.48;4.63;;;;;;;19.19;42.42;102114.13;5243463;28;20036;-66
2023/05/23 11:13:51;;;;;;;13.65;4.57;;;;;;;19.16;44.08;102108.91;5243129;28;20025;-66
2023/05/23 11:16:27;;;;;;;16.63;4.55;;;;;;;20.76;40.46;102104.88;5243365;28;20035;-66
2023/05/23 11:19:17;;;;;;;15.73;4.80;;;;;;;21.40;39.37;102095.53;5243423;28;20120;-66
2023/05/23 11:21:51;;;;;;;14.30;4.30;;;;;;;21.63;37.58;102100.00;5243020;28;20068;-67
2023/05/23 11:24:23;;;;;;;14.95;4.55;;;;;;;21.90;35.99;102091.03;5242876;28;20064;-67
2023/05/23 11:27:00;;;;;;;11.93;3.88;;;;;;;23.09;35.01;102106.44;5242195;28;20504;-66
2023/05/23 11:29:32;;;;;;;8.77;3.95;;;;;;;24.06;32.95;102098.44;5242973;28;20415;-66
2023/05/23 11:32:13;;;;;;;11.77;4.35;;;;;;;23.78;33.11;102102.41;5242742;28;20033;-66
2023/05/23 11:34:44;;;;;;;11.60;4.25;;;;;;;22.67;36.42;102102.03;5243164;28;20029;-66
2023/05/23 11:37:17;;;;;;;17.03;4.97;;;;;;;21.97;36.55;102100.47;5242764;28;20033;-66
2023/05/23 11:39:49;;;;;;;12.60;4.55;;;;;;;21.17;38.79;102101.72;5243065;28;20615;-66